createdAt,value
2022-09-15T00:00:34.710Z,23.46
2022-09-15T00:01:19.533Z,23.45
2022-09-15T00:02:15.839Z,23.44
2022-09-15T00:02:54.570Z,23.44
2022-09-15T00:03:26.088Z,23.42
2022-09-15T00:04:00.649Z,23.43
2022-09-15T00:04:32.308Z,23.44
2022-09-15T00:07:05.535Z,23.41
2022-09-15T00:07:57.141Z,23.39
2022-09-15T00:08:31.027Z,23.36
2022-09-15T00:09:09.818Z,23.34
2022-09-15T00:09:43.862Z,23.33
2022-09-15T00:10:27.364Z,23.36
2022-09-15T00:11:20.738Z,23.37
2022-09-15T00:11:42.860Z,23.38
2022-09-15T00:12:05.024Z,23.39
2022-09-15T00:12:28.241Z,23.39
2022-09-15T00:12:50.138Z,23.39
2022-09-15T00:13:11.745Z,23.37
2022-09-15T00:13:34.295Z,23.38
2022-09-15T00:14:00.464Z,23.38
2022-09-15T00:14:22.064Z,23.41
2022-09-15T00:14:43.685Z,23.42
2022-09-15T00:15:06.576Z,23.43
2022-09-15T00:15:31.426Z,23.25
2022-09-15T00:15:53.543Z,23.41
2022-09-15T00:16:16.234Z,23.38
2022-09-15T00:16:39.491Z,23.40
2022-09-15T00:17:01.261Z,23.40
2022-09-15T00:17:23.000Z,23.41
2022-09-15T00:17:49.681Z,23.38
2022-09-15T00:18:12.752Z,23.38
2022-09-15T00:18:36.260Z,23.36
2022-09-15T00:18:59.268Z,23.31
2022-09-15T00:19:20.829Z,23.34
2022-09-15T00:19:42.515Z,23.35
2022-09-15T00:20:07.310Z,23.37
2022-09-15T00:20:28.997Z,23.36
2022-09-15T00:20:50.763Z,23.38
2022-09-15T00:21:14.683Z,23.23
2022-09-15T00:21:38.772Z,23.40
2022-09-15T00:22:01.296Z,23.25
2022-09-15T00:22:24.138Z,23.41
2022-09-15T00:22:46.368Z,23.42
2022-09-15T00:23:08.326Z,23.40
2022-09-15T00:23:30.974Z,23.33
2022-09-15T00:23:52.925Z,23.26
2022-09-15T00:24:14.576Z,23.37
2022-09-15T00:24:36.716Z,23.32
2022-09-15T00:24:58.392Z,23.38
2022-09-15T00:25:21.186Z,23.35
2022-09-15T00:25:44.720Z,23.25
2022-09-15T00:26:08.005Z,23.41
2022-09-15T00:26:30.912Z,23.40
2022-09-15T00:26:53.807Z,23.38
2022-09-15T00:27:15.847Z,23.39
2022-09-15T00:27:37.563Z,23.35
2022-09-15T00:27:59.472Z,23.40
2022-09-15T00:28:23.495Z,23.28
2022-09-15T00:28:45.422Z,23.37
2022-09-15T00:29:07.035Z,23.33
2022-09-15T00:29:28.753Z,23.36
2022-09-15T00:43:26.503Z,23.22
2022-09-15T00:56:20.528Z,23.08
2022-09-15T00:56:44.231Z,23.12
2022-09-15T00:57:11.542Z,23.06
2022-09-15T00:57:37.413Z,23.12
2022-09-15T00:58:02.642Z,23.02
2022-09-15T00:58:30.004Z,23.11
2022-09-15T00:58:57.407Z,23.07
2022-09-15T00:59:22.627Z,23.06
2022-09-15T00:59:45.648Z,23.12
2022-09-15T01:00:11.575Z,23.12
2022-09-15T01:00:34.120Z,23.07
2022-09-15T01:00:58.973Z,23.11
2022-09-15T01:01:21.170Z,23.14
2022-09-15T01:01:45.874Z,23.13
2022-09-15T01:02:14.183Z,23.10
2022-09-15T01:02:37.462Z,23.13
2022-09-15T01:02:59.784Z,23.15
2022-09-15T01:03:21.877Z,23.01
2022-09-15T01:03:43.588Z,23.15
2022-09-15T01:04:06.276Z,23.13
2022-09-15T01:04:27.937Z,23.17
2022-09-15T01:04:57.449Z,23.16
2022-09-15T01:05:23.796Z,23.19
2022-09-15T01:05:53.749Z,23.10
2022-09-15T01:06:21.754Z,23.00
2022-09-15T01:06:50.560Z,23.14
2022-09-15T01:07:15.956Z,23.14
2022-09-15T01:07:44.408Z,23.21
2022-09-15T01:08:10.630Z,23.18
2022-09-15T01:08:36.113Z,23.19
2022-09-15T01:09:03.280Z,23.16
2022-09-15T01:09:29.845Z,23.22
2022-09-15T01:09:54.089Z,23.22
2022-09-15T01:10:20.808Z,23.19
2022-09-15T01:10:42.453Z,23.23
2022-09-15T01:11:04.993Z,23.22
2022-09-15T01:11:28.755Z,23.20
2022-09-15T01:11:50.897Z,23.20
2022-09-15T01:12:13.193Z,23.13
2022-09-15T01:12:36.461Z,23.22
2022-09-15T01:13:01.427Z,23.16
2022-09-15T01:13:23.002Z,23.17
2022-09-15T01:13:45.073Z,23.10
2022-09-15T01:14:07.936Z,23.19
2022-09-15T01:14:29.770Z,23.18
2022-09-15T01:14:52.761Z,23.15
2022-09-15T01:15:15.295Z,23.19
2022-09-15T01:15:43.949Z,23.18
2022-09-15T01:16:14.889Z,23.09
2022-09-15T01:16:51.250Z,23.12
2022-09-15T01:17:25.369Z,23.12
2022-09-15T01:18:00.521Z,23.12
2022-09-15T01:18:31.262Z,23.11
2022-09-15T01:19:03.219Z,23.12
2022-09-15T01:20:00.559Z,23.10
2022-09-15T01:20:54.423Z,23.10
2022-09-15T01:21:28.422Z,23.11
2022-09-15T01:21:58.609Z,23.11
2022-09-15T01:22:35.832Z,23.11
2022-09-15T01:23:12.995Z,23.10
2022-09-15T01:24:11.016Z,23.09
2022-09-15T01:24:55.201Z,23.08
2022-09-15T01:25:31.461Z,23.08
2022-09-15T01:26:16.805Z,23.06
2022-09-15T01:26:58.976Z,23.09
2022-09-15T01:28:02.101Z,23.07
2022-09-15T01:29:01.513Z,23.05
2022-09-15T01:30:08.046Z,23.02
2022-09-15T01:30:59.485Z,22.99
2022-09-15T01:32:04.714Z,22.99
2022-09-15T01:32:58.099Z,22.99
2022-09-15T01:33:38.712Z,22.99
2022-09-15T01:34:11.756Z,22.98
2022-09-15T01:35:20.479Z,22.96
2022-09-15T01:36:18.984Z,22.96
2022-09-15T01:37:54.966Z,22.92
2022-09-15T01:38:44.569Z,22.87
2022-09-15T01:39:24.632Z,22.87
2022-09-15T01:40:15.151Z,22.87
2022-09-15T01:40:58.167Z,22.82
2022-09-15T01:41:39.873Z,22.80
2022-09-15T01:42:26.359Z,22.84
2022-09-15T01:42:53.468Z,22.82
2022-09-15T01:43:22.682Z,22.85
2022-09-15T01:44:11.796Z,22.83
2022-09-15T01:44:43.310Z,22.82
2022-09-15T01:45:17.402Z,22.86
2022-09-15T01:45:58.594Z,22.87
2022-09-15T01:46:42.636Z,22.89
2022-09-15T01:47:15.415Z,22.81
2022-09-15T01:47:52.892Z,22.90
2022-09-15T01:48:18.852Z,22.88
2022-09-15T01:48:42.084Z,22.85
2022-09-15T01:49:07.213Z,22.85
2022-09-15T01:49:35.291Z,22.83
2022-09-15T01:50:01.421Z,22.69
2022-09-15T01:50:27.552Z,22.81
2022-09-15T01:50:54.043Z,22.85
2022-09-15T01:51:16.708Z,22.85
2022-09-15T01:51:39.714Z,22.84
2022-09-15T01:52:02.306Z,22.86
2022-09-15T01:52:25.727Z,22.87
2022-09-15T01:52:50.541Z,22.85
2022-09-15T01:53:17.829Z,22.80
2022-09-15T01:53:41.629Z,22.81
2022-09-15T01:54:06.426Z,22.81
2022-09-15T01:54:33.949Z,22.77
2022-09-15T01:55:00.403Z,22.78
2022-09-15T01:55:26.381Z,22.79
2022-09-15T01:55:53.781Z,22.79
2022-09-15T01:56:15.523Z,22.79
2022-09-15T01:56:38.745Z,22.77
2022-09-15T01:57:01.985Z,22.78
2022-09-15T01:57:23.775Z,22.81
2022-09-15T01:57:45.594Z,22.81
2022-09-15T01:58:08.636Z,22.81
2022-09-15T01:58:31.374Z,22.83
2022-09-15T01:58:53.968Z,22.84
2022-09-15T01:59:15.889Z,22.69
2022-09-15T01:59:37.759Z,22.83
2022-09-15T02:00:00.272Z,22.85
2022-09-15T02:00:24.473Z,22.78
2022-09-15T02:00:51.177Z,22.85
2022-09-15T02:01:17.140Z,22.84
2022-09-15T02:01:49.619Z,22.83
2022-09-15T02:02:14.641Z,22.84
2022-09-15T02:02:40.483Z,22.84
2022-09-15T02:03:09.427Z,22.84
2022-09-15T02:03:38.059Z,22.85
2022-09-15T02:04:06.641Z,22.87
2022-09-15T02:04:33.773Z,22.89
2022-09-15T02:05:00.961Z,22.83
2022-09-15T02:05:30.077Z,22.86
2022-09-15T02:06:02.651Z,22.88
2022-09-15T02:06:36.628Z,22.89
2022-09-15T02:07:07.316Z,22.87
2022-09-15T02:07:36.326Z,22.83
2022-09-15T02:08:05.317Z,22.90
2022-09-15T02:08:33.605Z,22.79
2022-09-15T02:09:02.673Z,22.90
2022-09-15T02:09:30.663Z,22.92
2022-09-15T02:09:58.796Z,22.85
2022-09-15T02:10:27.156Z,22.93
2022-09-15T02:10:58.805Z,22.95
2022-09-15T02:11:26.464Z,22.94
2022-09-15T02:11:56.964Z,22.91
2022-09-15T02:12:29.087Z,22.90
2022-09-15T02:12:58.475Z,22.88
2022-09-15T02:13:27.922Z,22.91
2022-09-15T02:13:59.709Z,22.88
2022-09-15T02:14:31.291Z,22.87
2022-09-15T02:14:57.261Z,22.84
2022-09-15T02:15:29.020Z,22.84
2022-09-15T02:15:54.857Z,22.80
2022-09-15T02:16:20.221Z,22.70
2022-09-15T02:16:45.864Z,22.74
2022-09-15T02:17:15.446Z,22.72
2022-09-15T02:17:43.670Z,22.72
2022-09-15T02:18:08.446Z,22.69
2022-09-15T02:18:35.812Z,22.68
2022-09-15T02:19:09.754Z,22.51
2022-09-15T02:19:36.002Z,22.66
2022-09-15T02:20:07.041Z,22.64
2022-09-15T02:20:40.061Z,22.61
2022-09-15T02:21:10.248Z,22.62
2022-09-15T02:21:37.231Z,22.61
2022-09-15T02:22:07.676Z,22.60
2022-09-15T02:22:34.593Z,22.59
2022-09-15T02:23:00.849Z,22.61
2022-09-15T02:23:27.100Z,22.61
2022-09-15T02:23:54.918Z,22.46
2022-09-15T02:24:19.813Z,22.63
2022-09-15T02:24:49.912Z,22.68
2022-09-15T02:25:17.419Z,22.70
2022-09-15T02:25:41.948Z,22.68
2022-09-15T02:26:08.950Z,22.63
2022-09-15T02:26:32.921Z,22.70
2022-09-15T02:26:56.161Z,22.67
2022-09-15T02:27:22.986Z,22.73
2022-09-15T02:27:49.733Z,22.74
2022-09-15T02:28:15.511Z,22.77
2022-09-15T02:28:41.033Z,22.67
2022-09-15T02:29:06.969Z,22.75
2022-09-15T02:29:33.644Z,22.74
2022-09-15T02:30:03.057Z,22.75
2022-09-15T02:30:28.142Z,22.54
2022-09-15T02:30:53.493Z,22.78
2022-09-15T02:31:17.912Z,22.77
2022-09-15T02:31:42.619Z,22.75
2022-09-15T02:32:07.532Z,22.76
2022-09-15T02:32:30.955Z,22.76
2022-09-15T02:32:56.612Z,22.76
2022-09-15T02:33:24.080Z,22.70
2022-09-15T02:33:49.635Z,22.64
2022-09-15T02:34:17.261Z,22.78
2022-09-15T02:34:43.677Z,22.80
2022-09-15T02:35:09.027Z,22.81
2022-09-15T02:35:34.783Z,22.80
2022-09-15T02:36:07.152Z,22.85
2022-09-15T02:36:33.705Z,22.86
2022-09-15T02:36:56.469Z,22.87
2022-09-15T02:37:21.220Z,22.80
2022-09-15T02:37:44.293Z,22.89
2022-09-15T02:38:09.042Z,22.86
2022-09-15T02:38:35.187Z,22.88
2022-09-15T02:39:02.253Z,22.88
2022-09-15T02:39:30.068Z,22.88
2022-09-15T02:39:56.729Z,22.89
2022-09-15T02:40:19.471Z,22.40
2022-09-15T02:40:46.861Z,22.89
2022-09-15T02:41:08.630Z,22.88
2022-09-15T02:41:30.513Z,22.88
2022-09-15T02:41:52.432Z,22.87
2022-09-15T02:42:24.569Z,22.84
2022-09-15T02:42:53.785Z,22.78
2022-09-15T02:43:17.758Z,22.86
2022-09-15T02:43:45.022Z,22.87
2022-09-15T02:44:10.599Z,22.87
2022-09-15T02:44:33.057Z,22.90
2022-09-15T02:44:55.376Z,22.82
2022-09-15T02:45:17.008Z,22.92
2022-09-15T02:45:40.144Z,22.85
2022-09-15T02:46:02.803Z,22.94
2022-09-15T02:46:24.572Z,22.93
2022-09-15T02:46:46.184Z,22.95
2022-09-15T02:47:08.395Z,22.92
2022-09-15T02:47:30.231Z,22.95
2022-09-15T02:47:52.854Z,22.89
2022-09-15T02:48:14.778Z,22.94
2022-09-15T02:48:36.393Z,22.93
2022-09-15T02:48:58.017Z,22.95
2022-09-15T02:49:20.945Z,22.97
2022-09-15T02:49:42.506Z,22.96
2022-09-15T02:50:05.035Z,22.94
2022-09-15T02:53:05.515Z,22.93
2022-09-15T02:53:37.518Z,22.93
2022-09-15T02:54:49.366Z,22.93
2022-09-15T02:57:38.109Z,22.81
2022-09-15T02:58:09.601Z,22.70
2022-09-15T02:59:16.729Z,22.71
2022-09-15T03:02:31.467Z,22.61
2022-09-15T03:03:01.175Z,22.57
2022-09-15T03:03:26.723Z,22.61
2022-09-15T03:04:11.184Z,22.59
2022-09-15T03:04:40.287Z,22.61
2022-09-15T03:11:35.687Z,22.57
2022-09-15T03:11:57.295Z,22.59
2022-09-15T03:12:18.884Z,22.57
2022-09-15T03:12:41.723Z,22.56
2022-09-15T03:13:04.756Z,22.59
2022-09-15T03:13:26.871Z,22.61
2022-09-15T03:13:52.751Z,22.61
2022-09-15T03:14:14.389Z,22.63
2022-09-15T03:14:38.267Z,22.62
2022-09-15T03:14:59.820Z,22.64
2022-09-15T03:15:23.563Z,22.64
2022-09-15T03:15:45.140Z,22.64
2022-09-15T03:16:08.908Z,22.65
2022-09-15T03:16:34.294Z,22.67
2022-09-15T03:16:55.885Z,22.61
2022-09-15T03:17:17.697Z,22.66
2022-09-15T03:17:41.574Z,22.65
2022-09-15T03:18:04.359Z,22.63
2022-09-15T03:18:25.974Z,22.62
2022-09-15T03:18:48.333Z,22.58
2022-09-15T03:19:09.914Z,22.64
2022-09-15T03:19:31.957Z,22.64
2022-09-15T03:19:54.489Z,22.56
2022-09-15T03:20:19.972Z,22.62
2022-09-15T03:20:41.733Z,22.63
2022-09-15T03:21:05.281Z,22.63
2022-09-15T03:21:29.258Z,22.66
2022-09-15T03:21:51.871Z,22.65
2022-09-15T03:22:13.652Z,22.63
2022-09-15T03:22:35.659Z,22.64
2022-09-15T03:22:57.237Z,22.65
2022-09-15T03:23:18.802Z,22.60
2022-09-15T03:23:41.908Z,22.57
2022-09-15T03:24:04.124Z,22.54
2022-09-15T03:24:25.975Z,22.56
2022-09-15T03:24:48.969Z,22.54
2022-09-15T03:25:11.375Z,22.51
2022-09-15T03:25:33.984Z,22.44
2022-09-15T03:25:56.020Z,22.51
2022-09-15T03:26:18.673Z,22.53
2022-09-15T03:26:40.616Z,22.52
2022-09-15T03:27:02.452Z,22.52
2022-09-15T03:27:24.094Z,22.51
2022-09-15T03:27:46.841Z,22.38
2022-09-15T03:28:08.600Z,22.53
2022-09-15T03:28:30.345Z,22.51
2022-09-15T03:28:53.160Z,22.12
2022-09-15T03:29:15.279Z,22.24
2022-09-15T03:29:37.972Z,22.46
2022-09-15T03:30:00.047Z,22.45
2022-09-15T03:30:21.641Z,22.43
2022-09-15T03:30:43.330Z,22.43
2022-09-15T03:31:07.212Z,22.44
2022-09-15T03:31:28.921Z,22.42
2022-09-15T03:31:52.097Z,22.42
2022-09-15T03:32:13.678Z,22.44
2022-09-15T03:32:36.841Z,22.46
2022-09-15T03:32:58.398Z,22.44
2022-09-15T03:33:20.288Z,22.43
2022-09-15T03:33:41.912Z,22.42
2022-09-15T03:34:04.780Z,22.34
2022-09-15T03:34:26.340Z,22.43
2022-09-15T03:34:47.971Z,22.43
2022-09-15T03:35:10.133Z,22.43
2022-09-15T03:35:31.713Z,22.43
2022-09-15T03:35:54.372Z,22.42
2022-09-15T03:36:17.210Z,22.42
2022-09-15T03:36:38.984Z,22.39
2022-09-15T03:37:00.520Z,22.36
2022-09-15T03:37:22.123Z,22.38
2022-09-15T03:37:44.640Z,22.37
2022-09-15T03:38:06.504Z,22.36
2022-09-15T03:38:28.482Z,22.37
2022-09-15T03:38:50.160Z,22.36
2022-09-15T03:39:11.975Z,22.42
2022-09-15T03:39:35.926Z,22.42
2022-09-15T03:39:57.918Z,22.44
2022-09-15T03:40:19.565Z,22.42
2022-09-15T03:40:42.894Z,22.43
2022-09-15T03:41:08.267Z,22.46
2022-09-15T03:41:29.904Z,22.45
2022-09-15T03:41:51.515Z,22.46
2022-09-15T03:42:14.048Z,22.45
2022-09-15T03:42:37.193Z,22.43
2022-09-15T03:43:08.740Z,22.42
2022-09-15T03:43:34.113Z,22.43
2022-09-15T03:43:59.432Z,22.42
2022-09-15T03:44:24.903Z,22.44
2022-09-15T03:44:48.740Z,22.44
2022-09-15T03:45:10.296Z,22.43
2022-09-15T03:45:37.905Z,22.42
2022-09-15T03:46:04.528Z,22.36
2022-09-15T03:46:28.687Z,22.39
2022-09-15T03:46:53.873Z,22.38
2022-09-15T03:47:17.242Z,22.40
2022-09-15T03:47:40.027Z,22.39
2022-09-15T03:48:05.715Z,22.38
2022-09-15T03:48:30.679Z,22.39
2022-09-15T03:48:55.401Z,22.36
2022-09-15T03:49:21.607Z,22.41
2022-09-15T03:49:53.415Z,22.39
2022-09-15T03:50:18.955Z,22.41
2022-09-15T03:50:43.380Z,22.40
2022-09-15T03:51:09.087Z,22.41
2022-09-15T03:51:35.914Z,22.43
2022-09-15T03:52:04.968Z,22.40
2022-09-15T03:52:32.308Z,22.39
2022-09-15T04:03:08.431Z,22.16
2022-09-15T04:03:30.946Z,22.19
2022-09-15T04:03:53.663Z,22.18
2022-09-15T04:04:15.271Z,22.17
2022-09-15T04:04:38.332Z,22.17
2022-09-15T04:04:59.971Z,22.14
2022-09-15T04:05:21.576Z,22.10
2022-09-15T04:05:43.249Z,22.19
2022-09-15T04:06:06.060Z,22.19
2022-09-15T04:06:27.779Z,22.17
2022-09-15T04:06:49.367Z,22.20
2022-09-15T04:07:11.019Z,22.20
2022-09-15T04:07:34.220Z,22.20
2022-09-15T04:07:55.795Z,22.17
2022-09-15T04:08:17.405Z,22.15
2022-09-15T04:08:39.329Z,22.15
2022-09-15T04:09:01.956Z,22.19
2022-09-15T04:09:24.707Z,22.19
2022-09-15T04:09:46.281Z,22.14
2022-09-15T04:10:09.121Z,22.20
2022-09-15T04:10:34.873Z,22.22
2022-09-15T04:10:57.488Z,22.21
2022-09-15T04:11:21.492Z,22.17
2022-09-15T04:11:43.035Z,22.23
2022-09-15T04:12:05.146Z,22.22
2022-09-15T04:12:27.799Z,22.23
2022-09-15T04:12:49.400Z,22.24
2022-09-15T04:13:18.673Z,22.23
2022-09-15T04:13:43.976Z,22.23
2022-09-15T04:14:14.383Z,22.23
2022-09-15T04:14:40.359Z,22.23
2022-09-15T04:15:04.977Z,22.18
2022-09-15T04:15:28.042Z,22.23
2022-09-15T04:16:05.015Z,22.18
2022-09-15T04:16:36.359Z,22.22
2022-09-15T04:16:59.378Z,22.13
2022-09-15T04:17:33.307Z,22.19
2022-09-15T04:17:58.177Z,22.19
2022-09-15T04:18:24.303Z,22.18
2022-09-15T04:19:02.192Z,22.18
2022-09-15T04:19:29.481Z,22.18
2022-09-15T04:19:51.178Z,22.16
2022-09-15T04:20:12.886Z,22.19
2022-09-15T04:20:35.444Z,22.17
2022-09-15T04:20:59.462Z,22.20
2022-09-15T04:21:23.248Z,22.18
2022-09-15T04:21:47.277Z,22.18
2022-09-15T04:22:08.909Z,22.16
2022-09-15T04:22:32.317Z,22.17
2022-09-15T04:22:53.915Z,22.16
2022-09-15T04:23:15.575Z,22.16
2022-09-15T04:23:38.714Z,22.16
2022-09-15T04:24:01.292Z,22.14
2022-09-15T04:24:23.669Z,22.14
2022-09-15T04:24:48.534Z,22.15
2022-09-15T04:25:13.520Z,22.13
2022-09-15T04:25:58.686Z,22.12
2022-09-15T04:26:26.057Z,22.18
2022-09-15T04:26:52.952Z,22.16
2022-09-15T04:27:15.035Z,22.15
2022-09-15T04:27:39.762Z,22.15
2022-09-15T04:28:03.016Z,22.15
2022-09-15T04:28:28.483Z,22.06
2022-09-15T04:29:31.817Z,22.14
2022-09-15T04:29:58.130Z,22.12
2022-09-15T04:30:21.722Z,22.10
2022-09-15T04:30:43.900Z,22.14
2022-09-15T04:31:12.677Z,22.15
2022-09-15T04:31:40.150Z,22.16
2022-09-15T04:32:04.205Z,22.18
2022-09-15T04:32:29.070Z,22.20
2022-09-15T04:32:56.297Z,22.21
2022-09-15T04:33:23.544Z,22.21
2022-09-15T04:33:59.146Z,22.19
2022-09-15T04:34:24.055Z,22.22
2022-09-15T04:34:46.686Z,22.23
2022-09-15T04:35:10.161Z,22.20
2022-09-15T04:35:31.726Z,22.16
2022-09-15T04:35:58.384Z,22.19
2022-09-15T04:36:22.935Z,22.03
2022-09-15T04:36:45.180Z,22.18
2022-09-15T04:37:07.418Z,22.11
2022-09-15T04:37:28.989Z,22.04
2022-09-15T04:37:51.545Z,22.16
2022-09-15T04:38:13.222Z,22.17
2022-09-15T04:38:35.551Z,22.20
2022-09-15T04:38:58.262Z,22.18
2022-09-15T04:39:20.995Z,22.19
2022-09-15T04:39:42.545Z,22.20
2022-09-15T04:40:04.737Z,22.19
2022-09-15T04:40:26.370Z,22.16
2022-09-15T04:40:49.155Z,22.17
2022-09-15T04:41:11.371Z,22.04
2022-09-15T04:41:33.627Z,22.18
2022-09-15T04:41:55.218Z,22.17
2022-09-15T04:42:17.847Z,22.05
2022-09-15T04:42:39.396Z,22.16
2022-09-15T04:43:01.119Z,22.01
2022-09-15T04:43:22.837Z,22.16
2022-09-15T04:43:45.847Z,22.15
2022-09-15T04:44:07.604Z,22.09
2022-09-15T04:44:30.113Z,22.13
2022-09-15T04:44:57.488Z,22.14
2022-09-15T04:45:21.064Z,22.15
2022-09-15T04:45:46.539Z,22.15
2022-09-15T04:46:11.121Z,22.14
2022-09-15T04:46:35.687Z,22.15
2022-09-15T04:47:02.314Z,22.12
2022-09-15T04:47:30.155Z,22.14
2022-09-15T04:47:58.632Z,22.14
2022-09-15T04:48:26.564Z,22.13
2022-09-15T04:48:51.983Z,22.15
2022-09-15T04:49:32.567Z,22.17
2022-09-15T04:49:57.717Z,22.15
2022-09-15T04:50:23.902Z,22.16
2022-09-15T04:51:09.963Z,22.17
2022-09-15T04:51:35.691Z,22.16
2022-09-15T04:51:58.015Z,22.15
2022-09-15T04:52:24.172Z,22.14
2022-09-15T04:52:46.611Z,22.19
2022-09-15T04:53:12.384Z,22.14
2022-09-15T04:53:36.637Z,22.22
2022-09-15T04:53:59.497Z,22.22
2022-09-15T04:54:27.941Z,22.24
2022-09-15T04:54:53.849Z,22.24
2022-09-15T04:55:17.861Z,22.21
2022-09-15T04:55:39.639Z,22.22
2022-09-15T04:56:03.371Z,22.22
2022-09-15T04:56:26.899Z,22.20
2022-09-15T04:56:49.238Z,22.20
2022-09-15T04:57:11.160Z,22.20
2022-09-15T04:57:40.939Z,22.22
2022-09-15T04:58:04.212Z,22.22
2022-09-15T04:58:26.943Z,22.20
2022-09-15T04:58:50.389Z,22.21
2022-09-15T04:59:14.646Z,22.22
2022-09-15T04:59:36.495Z,22.23
2022-09-15T04:59:59.036Z,22.25
2022-09-15T05:00:21.088Z,22.29
2022-09-15T05:00:43.589Z,22.32
2022-09-15T05:01:09.858Z,22.31
2022-09-15T05:01:35.497Z,22.28
2022-09-15T05:01:57.276Z,22.33
2022-09-15T05:02:19.145Z,22.36
2022-09-15T05:02:40.958Z,22.38
2022-09-15T05:03:03.841Z,22.38
2022-09-15T05:03:25.657Z,22.41
2022-09-15T05:03:47.856Z,22.42
2022-09-15T05:04:11.084Z,22.43
2022-09-15T05:04:34.845Z,22.45
2022-09-15T05:04:56.449Z,22.44
2022-09-15T05:05:18.049Z,22.45
2022-09-15T05:07:48.444Z,22.44
2022-09-15T05:08:21.137Z,22.34
2022-09-15T05:08:43.730Z,22.43
2022-09-15T05:09:10.476Z,22.44
2022-09-15T05:09:33.346Z,22.39
2022-09-15T05:09:55.466Z,22.33
2022-09-15T05:10:17.521Z,22.40
2022-09-15T05:10:40.175Z,22.34
2022-09-15T05:11:03.132Z,22.37
2022-09-15T05:11:25.872Z,22.39
2022-09-15T05:11:50.414Z,22.37
2022-09-15T05:12:12.003Z,22.38
2022-09-15T05:12:33.716Z,22.37
2022-09-15T05:12:55.284Z,22.38
2022-09-15T05:13:16.878Z,22.37
2022-09-15T05:13:41.091Z,22.39
2022-09-15T05:14:03.280Z,22.42
2022-09-15T05:14:24.873Z,22.36
2022-09-15T05:14:47.497Z,22.42
2022-09-15T05:15:10.892Z,22.39
2022-09-15T05:15:33.356Z,22.40
2022-09-15T05:15:55.273Z,22.39
2022-09-15T05:16:19.720Z,22.39
2022-09-15T05:16:42.438Z,22.38
2022-09-15T05:17:04.260Z,22.39
2022-09-15T05:17:26.853Z,22.36
2022-09-15T05:17:49.741Z,22.36
2022-09-15T05:18:12.236Z,22.39
2022-09-15T05:18:35.104Z,22.38
2022-09-15T05:18:58.436Z,22.32
2022-09-15T05:19:21.530Z,22.26
2022-09-15T05:19:45.358Z,22.39
2022-09-15T05:20:07.884Z,22.30
2022-09-15T05:20:29.832Z,22.39
2022-09-15T05:20:58.686Z,22.38
2022-09-15T05:21:23.091Z,22.40
2022-09-15T05:21:44.688Z,22.39
2022-09-15T05:22:06.266Z,22.42
2022-09-15T05:22:29.541Z,22.42
2022-09-15T05:22:51.106Z,22.40
2022-09-15T05:23:13.774Z,22.40
2022-09-15T05:23:37.004Z,22.37
2022-09-15T05:23:59.620Z,22.40
2022-09-15T05:24:21.362Z,22.42
2022-09-15T05:24:42.948Z,22.42
2022-09-15T05:25:05.828Z,22.26
2022-09-15T05:25:28.301Z,22.39
2022-09-15T05:25:55.949Z,22.40
2022-09-15T05:26:19.717Z,22.42
2022-09-15T05:26:41.758Z,22.44
2022-09-15T05:27:04.691Z,22.47
2022-09-15T05:27:26.211Z,22.50
2022-09-15T05:27:51.834Z,22.48
2022-09-15T05:28:15.073Z,22.47
2022-09-15T05:28:53.969Z,22.49
2022-09-15T05:29:17.035Z,22.47
2022-09-15T05:29:38.716Z,22.45
2022-09-15T05:30:35.170Z,22.46
2022-09-15T05:30:52.439Z,22.46
2022-09-15T05:31:18.149Z,22.47
2022-09-15T05:31:40.925Z,22.47
2022-09-15T05:32:03.033Z,22.44
2022-09-15T05:32:24.905Z,22.47
2022-09-15T05:32:46.816Z,22.50
2022-09-15T05:33:12.835Z,22.50
2022-09-15T05:33:35.977Z,22.50
2022-09-15T05:34:08.860Z,22.51
2022-09-15T05:34:36.897Z,22.49
2022-09-15T05:34:59.175Z,22.49
2022-09-15T05:35:25.564Z,22.48
2022-09-15T05:35:51.605Z,22.51
2022-09-15T05:36:16.645Z,22.54
2022-09-15T05:36:38.605Z,22.53
2022-09-15T05:37:00.584Z,22.56
2022-09-15T05:37:24.294Z,22.58
2022-09-15T05:37:47.243Z,22.60
2022-09-15T05:38:08.870Z,22.62
2022-09-15T05:38:31.913Z,22.62
2022-09-15T05:38:55.464Z,22.63
2022-09-15T05:39:18.228Z,22.65
2022-09-15T05:39:40.940Z,22.65
2022-09-15T05:40:08.131Z,22.67
2022-09-15T05:40:30.161Z,22.67
2022-09-15T05:40:53.199Z,22.64
2022-09-15T05:41:17.513Z,22.66
2022-09-15T05:41:41.561Z,22.65
2022-09-15T05:42:04.321Z,22.58
2022-09-15T05:42:25.969Z,22.62
2022-09-15T05:42:47.520Z,22.63
2022-09-15T05:43:09.107Z,22.66
2022-09-15T05:43:33.896Z,22.66
2022-09-15T05:43:56.984Z,22.65
2022-09-15T05:44:18.677Z,22.68
2022-09-15T05:44:40.261Z,22.67
2022-09-15T05:45:03.127Z,22.68
2022-09-15T05:45:24.944Z,22.69
2022-09-15T05:45:54.196Z,22.69
2022-09-15T05:46:17.055Z,22.70
2022-09-15T05:46:39.700Z,22.68
2022-09-15T05:47:01.444Z,22.67
2022-09-15T05:47:23.688Z,22.67
2022-09-15T05:47:45.315Z,22.67
2022-09-15T05:48:07.085Z,22.67
2022-09-15T05:48:30.088Z,22.70
2022-09-15T05:48:54.020Z,22.71
2022-09-15T05:49:15.669Z,22.73
2022-09-15T05:49:39.552Z,22.72
2022-09-15T05:50:01.142Z,22.72
2022-09-15T05:50:23.008Z,22.73
2022-09-15T05:50:49.792Z,22.67
2022-09-15T05:51:12.956Z,22.69
2022-09-15T05:51:34.549Z,22.74
2022-09-15T05:51:56.146Z,22.75
2022-09-15T05:52:17.681Z,22.74
2022-09-15T05:52:41.502Z,22.75
2022-09-15T05:53:03.589Z,22.72
2022-09-15T05:53:26.170Z,22.74
2022-09-15T05:53:47.834Z,22.75
2022-09-15T05:54:10.689Z,22.73
2022-09-15T05:54:32.294Z,22.77
2022-09-15T05:54:58.832Z,22.78
2022-09-15T05:55:20.788Z,22.79
2022-09-15T05:55:42.592Z,22.78
2022-09-15T05:56:06.997Z,22.72
2022-09-15T05:56:28.868Z,22.79
2022-09-15T05:56:50.449Z,22.76
2022-09-15T05:57:15.365Z,22.79
2022-09-15T05:57:36.952Z,22.77
2022-09-15T05:57:58.504Z,22.75
2022-09-15T05:58:20.090Z,22.63
2022-09-15T05:58:44.771Z,22.71
2022-09-15T05:59:06.425Z,22.69
2022-09-15T05:59:28.587Z,22.70
2022-09-15T05:59:51.117Z,22.70
2022-09-15T06:00:13.985Z,22.71
2022-09-15T06:00:35.829Z,22.73
2022-09-15T06:01:03.048Z,22.70
2022-09-15T06:01:27.543Z,22.70
2022-09-15T06:01:49.338Z,22.70
2022-09-15T06:02:11.113Z,22.71
2022-09-15T06:02:32.927Z,22.72
2022-09-15T06:02:54.717Z,22.73
2022-09-15T06:03:17.833Z,22.72
2022-09-15T06:03:40.611Z,22.74
2022-09-15T06:04:02.718Z,22.76
2022-09-15T06:04:25.513Z,22.74
2022-09-15T06:04:48.416Z,22.77
2022-09-15T06:05:10.049Z,22.78
2022-09-15T06:05:31.606Z,22.78
2022-09-15T06:06:00.088Z,22.75
2022-09-15T06:06:23.014Z,22.76
2022-09-15T06:06:44.856Z,22.78
2022-09-15T06:07:07.688Z,22.79
2022-09-15T06:07:29.367Z,22.80
2022-09-15T06:07:53.036Z,22.81
2022-09-15T06:08:14.963Z,22.80
2022-09-15T06:08:42.576Z,22.79
2022-09-15T06:09:07.092Z,22.79
2022-09-15T06:09:28.741Z,22.78
2022-09-15T06:09:51.716Z,22.80
2022-09-15T06:10:13.495Z,22.81
2022-09-15T06:10:36.101Z,22.80
2022-09-15T06:11:01.524Z,22.80
2022-09-15T06:11:24.797Z,22.75
2022-09-15T06:11:47.353Z,22.78
2022-09-15T06:12:08.947Z,22.77
2022-09-15T06:12:30.781Z,22.76
2022-09-15T06:12:53.368Z,22.78
2022-09-15T06:13:14.989Z,22.74
2022-09-15T06:13:37.960Z,22.80
2022-09-15T06:14:00.300Z,22.80
2022-09-15T06:14:21.877Z,22.78
2022-09-15T06:14:45.822Z,22.87
2022-09-15T06:15:08.337Z,22.87
2022-09-15T06:15:30.866Z,22.84
2022-09-15T06:15:52.727Z,22.85
2022-09-15T06:16:18.145Z,22.85
2022-09-15T06:16:39.978Z,22.83
2022-09-15T06:17:01.552Z,22.79
2022-09-15T06:17:23.218Z,22.83
2022-09-15T06:17:46.147Z,22.82
2022-09-15T06:18:07.761Z,22.83
2022-09-15T06:18:30.777Z,22.85
2022-09-15T06:18:53.938Z,22.84
2022-09-15T06:19:16.901Z,22.88
2022-09-15T06:19:38.896Z,22.89
2022-09-15T06:20:06.496Z,22.89
2022-09-15T06:20:28.156Z,22.89
2022-09-15T06:20:51.106Z,22.90
2022-09-15T06:21:15.959Z,22.90
2022-09-15T06:21:37.667Z,22.90
2022-09-15T06:22:01.180Z,22.89
2022-09-15T06:22:23.412Z,22.86
2022-09-15T06:22:46.381Z,22.80
2022-09-15T06:23:08.323Z,22.84
2022-09-15T06:23:30.429Z,22.88
2022-09-15T06:23:54.360Z,22.78
2022-09-15T06:24:16.185Z,22.86
2022-09-15T06:24:40.353Z,22.87
2022-09-15T06:25:02.249Z,22.88
2022-09-15T06:25:24.311Z,22.89
2022-09-15T06:25:46.915Z,22.85
2022-09-15T06:26:11.160Z,22.87
2022-09-15T06:26:33.503Z,22.88
2022-09-15T06:26:56.043Z,22.88
2022-09-15T06:27:17.670Z,22.85